Time;durP1;ratioP1;P1;durP2;ratioP2;P2;SDS_P1;SDS_P2;PMS_P1;PMS_P2;Temp;Humidity;BMP_temperature;BMP_pressure;BME280_temperature;BME280_humidity;BME280_pressure;Samples;Min_cycle;Max_cycle;Signal;HPM_P1;HPM_P2
2023/09/10 00:01:06;;;;;;;358.70;339.67;;;25.20;99.90;;;;;;5051571;28;20480;-75
2023/09/10 00:03:32;;;;;;;275.60;261.77;;;25.10;99.90;;;;;;5052205;28;20037;-74
2023/09/10 00:05:59;;;;;;;250.18;237.80;;;25.20;99.90;;;;;;5052075;28;20033;-74
2023/09/10 00:08:26;;;;;;;290.02;275.38;;;25.10;99.90;;;;;;5052490;28;20025;-75
2023/09/10 00:10:53;;;;;;;288.95;274.65;;;25.00;99.90;;;;;;5052114;28;20029;-74
2023/09/10 00:13:19;;;;;;;237.88;225.93;;;25.00;99.90;;;;;;5050946;28;20048;-74
2023/09/10 00:15:45;;;;;;;258.65;245.63;;;25.00;99.90;;;;;;5051314;28;20491;-75
2023/09/10 00:18:11;;;;;;;250.88;238.48;;;24.90;99.90;;;;;;5051983;28;20032;-74
2023/09/10 00:20:38;;;;;;;265.23;252.38;;;24.90;99.90;;;;;;5050981;28;20041;-75
2023/09/10 00:23:05;;;;;;;324.02;307.70;;;24.90;99.90;;;;;;5052184;28;20037;-75
2023/09/10 00:25:31;;;;;;;346.42;328.38;;;24.90;99.90;;;;;;5051796;28;20044;-74
2023/09/10 00:27:57;;;;;;;339.83;322.30;;;24.90;99.90;;;;;;5052300;28;20467;-74
2023/09/10 00:30:23;;;;;;;346.58;328.35;;;24.80;99.90;;;;;;5051336;28;20415;-75
2023/09/10 00:32:50;;;;;;;303.27;288.02;;;24.80;99.90;;;;;;5049900;28;20051;-74
2023/09/10 00:35:16;;;;;;;291.38;276.83;;;24.90;99.90;;;;;;5050561;28;20025;-75
2023/09/10 00:37:42;;;;;;;333.30;316.20;;;24.90;99.90;;;;;;5052013;28;20040;-75
2023/09/10 00:40:08;;;;;;;346.60;328.80;;;25.00;99.90;;;;;;5050931;28;20025;-73
2023/09/10 00:42:35;;;;;;;345.38;327.27;;;25.00;99.90;;;;;;5032137;28;20041;-75
2023/09/10 00:45:03;;;;;;;329.05;312.02;;;24.90;99.90;;;;;;5030827;28;20040;-75
2023/09/10 00:47:29;;;;;;;320.45;304.08;;;24.90;99.90;;;;;;5049885;28;20430;-75
2023/09/10 00:49:56;;;;;;;280.83;266.98;;;24.90;99.90;;;;;;5050842;28;20034;-75
2023/09/10 00:52:22;;;;;;;322.63;306.02;;;24.90;99.90;;;;;;5050282;28;20391;-75
2023/09/10 00:54:48;;;;;;;271.00;257.45;;;24.90;99.90;;;;;;5051884;28;20056;-73
2023/09/10 00:57:14;;;;;;;300.70;285.83;;;24.90;99.90;;;;;;5050542;28;20033;-74
2023/09/10 00:59:40;;;;;;;273.42;260.05;;;24.80;99.90;;;;;;5050586;28;20055;-75
2023/09/10 01:02:07;;;;;;;243.02;230.68;;;24.90;99.90;;;;;;5048939;28;20500;-75
2023/09/10 01:04:33;;;;;;;220.23;208.63;;;24.80;99.90;;;;;;5049961;28;20041;-74
2023/09/10 01:06:59;;;;;;;155.13;147.05;;;24.70;99.90;;;;;;5051859;28;20025;-75
2023/09/10 01:09:25;;;;;;;230.38;218.73;;;24.60;99.90;;;;;;5051809;28;20029;-75
2023/09/10 01:12:29;;;;;;;221.63;210.70;;;24.60;99.90;;;;;;5051451;28;20025;-75
2023/09/10 01:15:36;;;;;;;160.68;152.57;;;24.50;99.90;;;;;;5051575;28;20037;-74
2023/09/10 01:18:06;;;;;;;132.05;125.20;;;24.50;99.90;;;;;;5050128;28;20495;-74
2023/09/10 01:21:00;;;;;;;140.32;133.23;;;24.50;99.90;;;;;;5050219;28;20029;-75
2023/09/10 01:23:36;;;;;;;121.07;114.97;;;24.50;99.90;;;;;;5050327;28;20029;-75
2023/09/10 01:26:02;;;;;;;158.68;150.57;;;24.50;99.90;;;;;;5050776;28;20530;-74
2023/09/10 01:28:28;;;;;;;153.95;146.13;;;24.50;99.90;;;;;;5049760;28;20045;-75
2023/09/10 01:30:55;;;;;;;146.23;138.52;;;24.50;99.90;;;;;;5050393;28;20044;-75
2023/09/10 01:33:29;;;;;;;152.35;144.35;;;24.60;99.90;;;;;;5053640;28;20398;-75
2023/09/10 01:35:55;;;;;;;145.32;137.98;;;24.60;99.90;;;;;;5053750;28;20501;-75
2023/09/10 01:38:35;;;;;;;145.73;138.05;;;24.50;99.90;;;;;;5055374;28;20025;-74
2023/09/10 01:41:13;;;;;;;151.15;143.52;;;24.50;99.90;;;;;;5053638;28;20035;-75
2023/09/10 01:43:39;;;;;;;183.45;173.57;;;24.40;99.90;;;;;;5053942;28;20029;-75
2023/09/10 01:46:05;;;;;;;169.25;160.88;;;24.10;99.90;;;;;;5018753;28;20029;-75
2023/09/10 01:48:32;;;;;;;162.40;154.35;;;23.80;99.90;;;;;;5037362;28;20029;-75
2023/09/10 01:50:58;;;;;;;173.15;164.25;;;23.40;99.90;;;;;;5052590;28;20041;-74
2023/09/10 01:53:25;;;;;;;147.20;139.60;;;23.30;99.90;;;;;;5054929;28;20494;-75
2023/09/10 01:55:52;;;;;;;146.10;138.75;;;23.10;99.90;;;;;;5054504;28;20040;-75
2023/09/10 01:58:18;;;;;;;119.25;113.20;;;23.10;99.90;;;;;;5036605;28;20093;-74
2023/09/10 02:00:47;;;;;;;117.53;111.60;;;23.10;99.90;;;;;;5053919;28;20040;-75
2023/09/10 02:03:13;;;;;;;107.05;101.65;;;23.10;99.90;;;;;;5054422;28;20478;-75
2023/09/10 02:05:41;;;;;;;126.88;120.38;;;23.30;99.90;;;;;;5054437;28;20032;-75
2023/09/10 02:08:07;;;;;;;122.63;116.13;;;23.50;99.90;;;;;;5054896;28;20032;-75
2023/09/10 02:10:35;;;;;;;69.75;65.95;;;23.40;99.90;;;;;;5054366;28;20025;-75
2023/09/10 02:13:01;;;;;;;78.90;74.55;;;23.30;99.90;;;;;;5054400;28;20375;-75
2023/09/10 02:15:27;;;;;;;64.68;60.92;;;23.20;99.90;;;;;;5052254;28;20530;-75
2023/09/10 02:17:53;;;;;;;75.22;70.95;;;23.40;99.90;;;;;;5054626;28;20036;-74
2023/09/10 02:20:19;;;;;;;72.93;68.63;;;23.40;99.90;;;;;;5054117;28;20025;-74
2023/09/10 02:22:45;;;;;;;70.45;66.40;;;23.50;99.90;;;;;;5052412;28;20044;-75
2023/09/10 02:25:12;;;;;;;70.93;67.05;;;23.60;99.90;;;;;;5053975;28;20474;-75
2023/09/10 02:27:38;;;;;;;65.13;61.40;;;23.60;99.90;;;;;;5053716;28;20049;-75
2023/09/10 02:30:07;;;;;;;64.57;61.03;;;23.70;99.90;;;;;;5053870;28;20025;-74
2023/09/10 02:32:33;;;;;;;67.82;64.05;;;23.80;99.90;;;;;;5041463;28;20040;-75
2023/09/10 02:34:59;;;;;;;74.22;70.22;;;23.80;99.90;;;;;;5034282;28;20059;-74
2023/09/10 02:37:25;;;;;;;76.55;72.45;;;23.80;99.90;;;;;;5052757;28;20036;-75
2023/09/10 02:39:51;;;;;;;76.40;72.30;;;23.90;99.90;;;;;;5054037;28;20021;-75
2023/09/10 02:42:17;;;;;;;79.28;74.75;;;24.00;99.90;;;;;;5053326;28;20395;-75
2023/09/10 02:44:43;;;;;;;90.53;85.60;;;23.50;99.90;;;;;;5053037;28;20033;-75
2023/09/10 02:47:09;;;;;;;112.65;106.88;;;23.30;99.90;;;;;;5053108;28;20063;-76
2023/09/10 02:49:36;;;;;;;99.20;93.97;;;23.40;99.90;;;;;;5053858;28;20033;-75
2023/09/10 02:52:02;;;;;;;122.65;116.30;;;23.40;99.90;;;;;;5053630;28;20040;-75
2023/09/10 02:54:29;;;;;;;103.40;97.90;;;23.50;99.90;;;;;;5052971;28;20053;-75
2023/09/10 02:56:55;;;;;;;108.85;103.22;;;23.50;99.90;;;;;;5053224;28;20048;-75
2023/09/10 02:59:23;;;;;;;109.47;103.68;;;23.40;99.90;;;;;;5054061;28;20037;-75
2023/09/10 03:01:49;;;;;;;105.25;99.80;;;23.40;99.90;;;;;;5051694;28;20029;-75
2023/09/10 03:04:15;;;;;;;105.72;100.35;;;23.40;99.90;;;;;;5053666;28;20040;-74
2023/09/10 03:06:45;;;;;;;105.78;100.25;;;23.50;99.90;;;;;;5052216;28;20032;-75
2023/09/10 03:09:11;;;;;;;111.57;105.35;;;23.60;99.90;;;;;;5052478;28;20036;-75
2023/09/10 03:11:38;;;;;;;116.50;110.43;;;23.60;99.90;;;;;;5052743;28;20115;-74
2023/09/10 03:14:05;;;;;;;142.90;135.38;;;23.30;99.90;;;;;;5052160;28;20519;-75
2023/09/10 03:16:32;;;;;;;198.20;188.60;;;23.30;99.90;;;;;;5052507;28;20041;-75
2023/09/10 03:18:58;;;;;;;180.63;171.77;;;23.30;99.90;;;;;;5053355;28;20024;-75
2023/09/10 03:21:25;;;;;;;166.10;157.60;;;23.20;99.90;;;;;;5053086;28;20037;-75
2023/09/10 03:23:52;;;;;;;158.75;150.73;;;23.20;99.90;;;;;;5053267;28;20387;-75
2023/09/10 03:26:18;;;;;;;148.68;141.30;;;23.10;99.90;;;;;;5052491;28;20025;-74
2023/09/10 03:28:44;;;;;;;172.27;163.50;;;23.10;99.90;;;;;;5053327;28;20033;-75
2023/09/10 03:31:10;;;;;;;174.30;165.60;;;23.10;99.90;;;;;;5050748;28;20029;-74
2023/09/10 03:33:36;;;;;;;156.85;148.95;;;22.90;99.90;;;;;;5052997;28;20048;-74
2023/09/10 03:36:02;;;;;;;157.15;149.15;;;22.90;99.90;;;;;;5052377;28;20495;-74
2023/09/10 03:38:28;;;;;;;158.52;150.55;;;22.90;99.90;;;;;;5051347;28;20053;-77
2023/09/10 03:40:55;;;;;;;177.70;168.80;;;22.90;99.90;;;;;;5052136;28;20479;-77
2023/09/10 03:43:21;;;;;;;181.25;172.30;;;22.70;99.90;;;;;;5053120;28;20037;-77
2023/09/10 03:45:47;;;;;;;195.68;185.85;;;22.80;99.90;;;;;;5051957;28;20040;-77
2023/09/10 03:48:13;;;;;;;198.32;188.65;;;23.00;99.90;;;;;;5052913;28;20108;-78
2023/09/10 03:50:39;;;;;;;131.23;124.57;;;23.10;99.90;;;;;;5050896;28;20037;-77
2023/09/10 03:53:05;;;;;;;159.90;152.00;;;23.30;99.90;;;;;;5052647;28;20052;-77
2023/09/10 03:55:31;;;;;;;159.05;150.95;;;23.30;99.90;;;;;;5051745;28;20029;-77
2023/09/10 03:57:58;;;;;;;179.70;170.43;;;23.40;99.90;;;;;;5052589;28;20029;-77
2023/09/10 04:00:24;;;;;;;168.35;160.00;;;23.50;99.90;;;;;;5051466;28;20490;-77
2023/09/10 04:02:50;;;;;;;154.25;146.55;;;23.40;99.90;;;;;;5051401;28;20040;-77
2023/09/10 04:05:16;;;;;;;132.38;125.82;;;23.40;99.90;;;;;;5051054;28;20036;-77
2023/09/10 04:07:42;;;;;;;143.20;136.07;;;23.40;99.90;;;;;;5051359;28;20033;-77
2023/09/10 04:10:08;;;;;;;154.70;146.95;;;23.30;99.90;;;;;;5050628;28;20033;-75
2023/09/10 04:12:35;;;;;;;150.00;142.35;;;23.40;99.90;;;;;;5052097;28;20041;-77
2023/09/10 04:15:01;;;;;;;152.05;144.13;;;23.40;99.90;;;;;;5050959;28;20056;-74
2023/09/10 04:17:28;;;;;;;138.02;131.02;;;23.40;99.90;;;;;;5051255;28;20048;-74
2023/09/10 04:19:55;;;;;;;145.73;138.52;;;23.50;99.90;;;;;;5051973;28;20041;-74
2023/09/10 04:22:21;;;;;;;136.10;129.35;;;23.50;99.90;;;;;;5051863;28;20029;-74
2023/09/10 04:24:47;;;;;;;129.38;123.00;;;23.50;99.90;;;;;;5050745;28;20029;-74
2023/09/10 04:27:13;;;;;;;133.95;127.05;;;23.50;99.90;;;;;;5051817;28;20040;-74
2023/09/10 04:29:39;;;;;;;149.60;141.85;;;23.50;99.90;;;;;;5052037;28;20031;-74
2023/09/10 04:32:05;;;;;;;153.93;146.27;;;23.40;99.90;;;;;;5042694;28;20038;-74
2023/09/10 04:34:31;;;;;;;124.15;117.80;;;23.30;99.90;;;;;;5032352;28;20049;-74
2023/09/10 04:36:57;;;;;;;121.70;115.22;;;23.30;99.90;;;;;;5046678;28;20037;-74
2023/09/10 04:39:23;;;;;;;137.80;130.95;;;23.30;99.90;;;;;;5051693;28;20036;-74
2023/09/10 04:41:49;;;;;;;114.43;108.57;;;23.30;99.90;;;;;;5051790;28;20029;-74
2023/09/10 04:44:16;;;;;;;107.40;101.88;;;23.20;99.90;;;;;;5050709;28;20066;-74
2023/09/10 04:46:42;;;;;;;105.93;100.45;;;23.10;99.90;;;;;;5051168;28;20399;-74
2023/09/10 04:49:08;;;;;;;115.22;109.15;;;23.10;99.90;;;;;;5052029;28;20036;-74
2023/09/10 04:51:34;;;;;;;138.65;131.60;;;23.10;99.90;;;;;;5051592;28;20029;-74
2023/09/10 04:54:00;;;;;;;147.50;140.00;;;23.10;99.90;;;;;;5051492;28;20037;-74
2023/09/10 04:56:26;;;;;;;137.88;130.95;;;23.10;99.90;;;;;;5051581;28;20024;-74
2023/09/10 04:58:52;;;;;;;133.70;126.93;;;23.00;99.90;;;;;;5050734;28;20025;-73
2023/09/10 05:01:19;;;;;;;143.20;135.98;;;23.00;99.90;;;;;;5051046;28;20036;-74
2023/09/10 05:03:45;;;;;;;143.43;136.10;;;23.00;99.90;;;;;;5051740;28;20040;-74
2023/09/10 05:06:12;;;;;;;135.95;129.05;;;23.00;99.90;;;;;;5050466;28;20029;-74
2023/09/10 05:08:39;;;;;;;160.68;152.23;;;23.00;99.90;;;;;;5055452;28;20048;-74
2023/09/10 05:11:05;;;;;;;179.57;170.63;;;23.00;99.90;;;;;;5055417;28;20028;-74
2023/09/10 05:13:31;;;;;;;146.48;139.07;;;22.80;99.90;;;;;;5055365;28;20403;-73
2023/09/10 05:15:57;;;;;;;147.50;139.65;;;22.50;99.90;;;;;;5055101;28;20033;-74
2023/09/10 05:18:24;;;;;;;130.55;123.95;;;22.40;99.90;;;;;;5055761;28;20029;-74
2023/09/10 05:20:53;;;;;;;130.18;123.78;;;22.50;99.90;;;;;;5054781;28;20033;-73
2023/09/10 05:23:21;;;;;;;132.85;126.10;;;22.60;99.90;;;;;;5053365;28;20041;-74
2023/09/10 05:25:48;;;;;;;139.35;132.13;;;22.70;99.90;;;;;;5054756;28;20037;-74
2023/09/10 05:28:14;;;;;;;150.32;142.52;;;22.70;99.90;;;;;;5055574;28;20033;-74
2023/09/10 05:30:40;;;;;;;158.73;150.85;;;22.90;99.90;;;;;;5053635;28;20037;-74
2023/09/10 05:33:07;;;;;;;159.20;150.95;;;23.00;99.90;;;;;;5054768;28;20041;-74
2023/09/10 05:35:33;;;;;;;171.13;162.70;;;23.10;99.90;;;;;;5055045;28;20040;-77
2023/09/10 05:37:59;;;;;;;142.88;135.55;;;23.10;99.90;;;;;;5055173;28;20032;-77
2023/09/10 05:40:25;;;;;;;142.18;134.73;;;23.20;99.90;;;;;;5054914;28;20032;-77
2023/09/10 05:42:51;;;;;;;154.57;146.93;;;23.20;99.90;;;;;;5055166;28;20017;-76
2023/09/10 05:45:18;;;;;;;156.63;148.55;;;23.20;99.90;;;;;;5054324;28;20025;-77
2023/09/10 05:47:44;;;;;;;148.63;141.13;;;23.30;99.90;;;;;;5055179;28;20033;-77
2023/09/10 05:50:10;;;;;;;143.35;136.15;;;23.30;99.90;;;;;;5054714;28;20032;-77
2023/09/10 05:52:36;;;;;;;141.82;134.50;;;23.30;99.90;;;;;;5033659;28;20044;-77
2023/09/10 05:55:03;;;;;;;141.13;133.82;;;23.30;99.90;;;;;;5034966;28;20056;-77
2023/09/10 05:57:29;;;;;;;144.98;137.68;;;23.30;99.90;;;;;;5053714;28;20033;-76
2023/09/10 05:59:55;;;;;;;193.27;183.77;;;23.40;99.90;;;;;;5054896;28;20494;-77
2023/09/10 06:02:21;;;;;;;270.27;256.75;;;23.40;99.90;;;;;;5052796;28;20035;-77
2023/09/10 06:04:47;;;;;;;230.57;219.30;;;23.40;99.90;;;;;;5054813;28;20033;-77
2023/09/10 06:07:13;;;;;;;267.08;253.98;;;23.10;99.90;;;;;;5054163;28;20036;-77
2023/09/10 06:09:39;;;;;;;340.85;324.17;;;23.20;99.90;;;;;;5053450;28;20037;-77
2023/09/10 06:12:05;;;;;;;340.10;323.15;;;23.30;99.90;;;;;;5054281;28;20029;-77
2023/09/10 06:14:34;;;;;;;309.30;294.10;;;23.40;99.90;;;;;;5054372;28;20048;-76
2023/09/10 06:17:01;;;;;;;196.38;186.68;;;23.50;99.90;;;;;;5051966;28;20104;-77
2023/09/10 06:19:27;;;;;;;158.57;150.70;;;23.30;99.90;;;;;;5052602;28;20507;-75
2023/09/10 06:21:53;;;;;;;197.65;188.10;;;23.00;99.90;;;;;;5054014;28;20440;-75
2023/09/10 06:24:19;;;;;;;167.90;159.50;;;23.00;99.90;;;;;;5054470;28;20033;-75
2023/09/10 06:26:45;;;;;;;240.02;228.35;;;23.00;99.90;;;;;;5054051;28;20033;-76
2023/09/10 06:29:11;;;;;;;196.65;187.15;;;23.20;99.90;;;;;;5052887;28;20041;-75
2023/09/10 06:31:37;;;;;;;187.85;178.20;;;23.30;99.90;;;;;;5052791;28;20040;-76
2023/09/10 06:34:04;;;;;;;226.70;215.40;;;23.20;99.90;;;;;;5054257;28;20033;-75
2023/09/10 06:36:31;;;;;;;298.33;283.98;;;23.20;99.90;;;;;;5053460;28;20043;-76
2023/09/10 06:38:57;;;;;;;283.40;269.90;;;23.10;99.90;;;;;;5052922;28;20029;-75
2023/09/10 06:41:23;;;;;;;353.40;336.15;;;22.90;99.90;;;;;;5053792;28;20037;-76
2023/09/10 06:43:49;;;;;;;333.13;316.58;;;22.90;99.90;;;;;;5054110;28;20029;-75
2023/09/10 06:46:15;;;;;;;321.80;305.98;;;22.80;99.90;;;;;;5053169;28;20056;-76
2023/09/10 06:48:41;;;;;;;166.82;158.63;;;22.80;99.90;;;;;;5053931;28;20025;-76
2023/09/10 06:51:08;;;;;;;192.82;183.23;;;22.70;99.90;;;;;;5053496;28;20056;-75
2023/09/10 06:53:34;;;;;;;242.68;230.85;;;23.00;99.90;;;;;;5053611;28;20037;-75
2023/09/10 06:56:00;;;;;;;256.83;244.27;;;23.20;99.90;;;;;;5053304;28;20403;-76
2023/09/10 06:58:26;;;;;;;195.45;185.63;;;23.40;99.90;;;;;;5053643;28;20025;-75
2023/09/10 07:00:52;;;;;;;172.27;163.65;;;23.50;99.90;;;;;;5053035;28;20060;-76
2023/09/10 07:03:19;;;;;;;186.63;177.63;;;23.60;99.90;;;;;;5053345;28;20020;-75
2023/09/10 07:05:45;;;;;;;204.90;194.65;;;23.70;99.90;;;;;;5053250;28;20025;-75
2023/09/10 07:08:11;;;;;;;346.30;329.10;;;23.80;99.90;;;;;;5053573;28;20028;-75
2023/09/10 07:10:37;;;;;;;145.35;138.02;;;23.90;99.90;;;;;;5035360;28;20048;-75
2023/09/10 07:13:07;;;;;;;173.63;164.93;;;24.10;99.90;;;;;;5053485;28;20029;-76
2023/09/10 07:15:34;;;;;;;148.50;140.98;;;24.30;99.90;;;;;;5052722;28;20037;-75
2023/09/10 07:18:00;;;;;;;146.65;139.30;;;24.50;99.90;;;;;;5052181;28;20044;-75
2023/09/10 07:20:27;;;;;;;151.95;144.15;;;24.60;99.90;;;;;;5053301;28;20033;-76
2023/09/10 07:22:53;;;;;;;147.38;139.63;;;24.80;99.90;;;;;;5053156;28;20064;-75
2023/09/10 07:25:20;;;;;;;135.18;128.32;;;24.90;99.90;;;;;;5053148;28;20384;-75
2023/09/10 07:27:46;;;;;;;147.70;140.13;;;25.00;99.90;;;;;;5053380;28;20037;-75
2023/09/10 07:30:12;;;;;;;117.28;111.00;;;25.10;99.90;;;;;;5052038;28;20029;-75
2023/09/10 07:32:38;;;;;;;118.38;112.30;;;25.30;99.90;;;;;;5052890;28;20040;-75
2023/09/10 07:35:04;;;;;;;133.43;126.68;;;25.40;99.90;;;;;;5052870;28;20484;-76
2023/09/10 07:37:30;;;;;;;145.52;137.98;;;25.50;99.90;;;;;;5052782;28;20044;-75
2023/09/10 07:39:56;;;;;;;150.43;142.70;;;25.70;99.90;;;;;;5052857;28;20025;-76
2023/09/10 07:42:22;;;;;;;133.32;126.55;;;25.90;99.90;;;;;;5052600;28;20083;-76
2023/09/10 07:44:48;;;;;;;152.85;144.95;;;25.80;99.90;;;;;;5051684;28;20037;-75
2023/09/10 07:47:15;;;;;;;144.90;137.48;;;26.10;99.90;;;;;;5051800;28;20037;-75
2023/09/10 07:49:41;;;;;;;167.88;159.18;;;26.20;99.90;;;;;;5052691;28;20027;-76
2023/09/10 07:52:07;;;;;;;177.88;168.63;;;26.20;99.90;;;;;;5052558;28;20029;-75
2023/09/10 07:54:35;;;;;;;174.93;166.23;;;26.20;99.90;;;;;;5052603;28;20053;-75
2023/09/10 07:57:03;;;;;;;210.98;200.82;;;26.40;99.90;;;;;;5051946;28;20063;-75
2023/09/10 07:59:29;;;;;;;211.65;201.07;;;26.50;99.90;;;;;;5052082;28;20045;-74
2023/09/10 08:01:55;;;;;;;276.08;261.92;;;26.60;99.90;;;;;;5050136;28;20052;-75
2023/09/10 08:04:22;;;;;;;207.73;197.57;;;26.60;99.90;;;;;;5052485;28;20029;-75
2023/09/10 08:06:48;;;;;;;228.90;217.77;;;26.60;99.90;;;;;;5052285;28;20032;-76
2023/09/10 08:09:14;;;;;;;231.88;220.60;;;26.80;99.90;;;;;;5051134;28;20041;-76
2023/09/10 08:11:40;;;;;;;270.65;257.48;;;27.10;99.90;;;;;;5051931;28;20059;-75
2023/09/10 08:14:06;;;;;;;271.17;258.00;;;27.30;99.90;;;;;;5052259;28;20045;-76
2023/09/10 08:16:32;;;;;;;250.13;237.70;;;27.40;99.90;;;;;;5051216;28;20049;-76
2023/09/10 08:18:59;;;;;;;281.40;267.70;;;27.60;99.90;;;;;;5050976;28;20052;-75
2023/09/10 08:21:26;;;;;;;194.00;184.02;;;27.70;99.70;;;;;;5052077;28;20032;-76
2023/09/10 08:23:52;;;;;;;178.48;169.68;;;27.90;99.90;;;;;;5051108;28;20025;-76
2023/09/10 08:26:18;;;;;;;183.07;173.85;;;28.30;99.90;;;;;;5051843;28;20033;-76
2023/09/10 08:28:45;;;;;;;181.68;172.38;;;28.50;99.10;;;;;;5052263;28;20047;-76
2023/09/10 08:31:11;;;;;;;217.73;206.85;;;28.70;98.80;;;;;;5050841;28;20037;-76
2023/09/10 08:33:37;;;;;;;175.60;166.68;;;28.60;98.20;;;;;;5052017;28;20044;-76
2023/09/10 08:36:03;;;;;;;166.52;157.98;;;28.60;98.70;;;;;;5051653;28;20045;-76
2023/09/10 08:38:29;;;;;;;182.40;173.05;;;28.70;97.40;;;;;;5051962;28;20033;-75
2023/09/10 08:40:58;;;;;;;144.43;136.82;;;28.80;97.50;;;;;;5049994;28;20033;-76
2023/09/10 08:43:41;;;;;;;144.20;137.02;;;29.00;97.30;;;;;;5049999;28;20387;-76
2023/09/10 08:46:09;;;;;;;158.55;150.23;;;29.30;97.60;;;;;;5049775;28;20033;-76
2023/09/10 08:48:42;;;;;;;132.02;125.05;;;29.30;97.30;;;;;;5051976;28;20033;-76
2023/09/10 08:51:10;;;;;;;140.00;132.85;;;29.50;96.90;;;;;;5050558;28;20028;-76
2023/09/10 08:53:37;;;;;;;138.68;131.30;;;29.50;96.60;;;;;;5050699;28;20463;-76
2023/09/10 08:56:04;;;;;;;144.35;137.00;;;29.60;96.70;;;;;;5050509;28;20052;-76
2023/09/10 08:58:31;;;;;;;146.88;139.15;;;29.70;96.50;;;;;;5050069;28;20395;-76
2023/09/10 09:00:57;;;;;;;145.80;138.07;;;29.60;96.40;;;;;;5049079;28;20044;-76
2023/09/10 09:03:24;;;;;;;138.60;131.38;;;29.60;96.20;;;;;;5050675;28;20029;-76
2023/09/10 09:05:50;;;;;;;150.70;143.15;;;29.60;95.70;;;;;;5051016;28;20416;-76
2023/09/10 09:08:16;;;;;;;150.07;142.27;;;29.50;95.50;;;;;;5033477;28;20044;-76
2023/09/10 09:10:44;;;;;;;154.40;146.43;;;29.50;95.40;;;;;;5051545;28;20506;-76
2023/09/10 09:13:11;;;;;;;172.07;163.25;;;29.50;95.10;;;;;;5050189;28;20057;-76
2023/09/10 09:15:38;;;;;;;186.23;176.32;;;29.40;95.20;;;;;;5048193;28;20041;-76
2023/09/10 09:18:11;;;;;;;275.65;261.83;;;29.20;95.20;;;;;;5034201;28;20040;-76
2023/09/10 09:20:37;;;;;;;313.90;298.17;;;29.20;95.70;;;;;;5034708;28;20467;-75
2023/09/10 09:23:30;;;;;;;327.85;311.63;;;29.20;95.70;;;;;;5017074;28;20045;-75
2023/09/10 09:25:56;;;;;;;473.95;449.70;;;29.10;95.90;;;;;;4970060;28;20402;-76
2023/09/10 09:28:23;;;;;;;486.55;461.73;;;29.10;96.50;;;;;;4954650;28;20054;-75
2023/09/10 09:30:51;;;;;;;467.00;443.08;;;28.90;97.10;;;;;;4959337;28;20062;-75
2023/09/10 09:33:17;;;;;;;427.58;405.63;;;28.80;97.50;;;;;;4973559;28;20046;-76
2023/09/10 09:35:44;;;;;;;439.83;417.83;;;28.70;98.20;;;;;;4989073;28;20489;-75
2023/09/10 09:38:11;;;;;;;405.15;384.27;;;28.60;98.40;;;;;;4974145;28;20053;-75
2023/09/10 09:40:37;;;;;;;369.27;350.40;;;28.40;98.20;;;;;;4973230;28;20043;-75
2023/09/10 09:43:06;;;;;;;404.55;384.05;;;28.30;98.00;;;;;;4989620;28;20030;-76
2023/09/10 09:45:33;;;;;;;362.25;343.92;;;28.20;97.80;;;;;;4988606;28;20030;-76
2023/09/10 09:47:59;;;;;;;339.55;322.67;;;28.10;97.60;;;;;;4990231;28;20532;-75
2023/09/10 09:50:26;;;;;;;326.73;309.75;;;28.00;97.70;;;;;;4973603;28;20034;-76
2023/09/10 09:52:53;;;;;;;354.38;336.73;;;27.90;97.70;;;;;;4990931;28;20432;-75
2023/09/10 09:55:19;;;;;;;336.30;319.70;;;27.80;98.20;;;;;;4993023;28;20046;-76
2023/09/10 09:57:48;;;;;;;274.60;261.13;;;27.90;98.80;;;;;;4993084;28;20034;-76
2023/09/10 10:00:15;;;;;;;284.52;270.60;;;27.80;99.90;;;;;;4992590;28;20133;-76
2023/09/10 10:02:42;;;;;;;287.23;273.30;;;27.80;99.90;;;;;;5016183;28;20044;-76
2023/09/10 10:05:08;;;;;;;378.48;358.90;;;28.00;99.90;;;;;;5053023;28;20037;-76
2023/09/10 10:07:36;;;;;;;401.58;381.05;;;28.30;99.90;;;;;;5054487;28;20032;-76
2023/09/10 10:10:06;;;;;;;417.52;396.08;;;28.30;99.50;;;;;;5053751;28;20025;-75
2023/09/10 10:12:32;;;;;;;359.85;341.15;;;28.50;99.90;;;;;;5052414;28;20037;-75
2023/09/10 10:14:59;;;;;;;364.38;345.75;;;28.70;99.30;;;;;;5053138;28;20048;-77
2023/09/10 10:17:26;;;;;;;283.23;269.08;;;28.90;98.90;;;;;;5053921;28;20041;-74
2023/09/10 10:19:52;;;;;;;306.52;291.17;;;29.00;98.40;;;;;;5054569;28;20032;-74
2023/09/10 10:22:19;;;;;;;290.90;276.30;;;29.20;98.60;;;;;;5052965;28;20033;-74
2023/09/10 10:24:45;;;;;;;177.15;168.20;;;29.30;98.40;;;;;;5053181;28;20028;-75
2023/09/10 10:27:13;;;;;;;183.88;174.43;;;29.40;97.30;;;;;;5053722;28;20789;-74
2023/09/10 10:29:39;;;;;;;160.57;152.07;;;29.60;97.30;;;;;;5054342;28;20036;-74
2023/09/10 10:32:10;;;;;;;184.93;174.98;;;29.60;96.30;;;;;;5052392;28;20040;-74
2023/09/10 10:34:38;;;;;;;177.32;167.73;;;29.70;96.00;;;;;;5052663;28;20044;-74
2023/09/10 10:37:39;;;;;;;218.93;208.05;;;29.80;95.30;;;;;;5051702;28;20048;-74
2023/09/10 10:40:12;;;;;;;209.38;199.23;;;29.90;94.80;;;;;;5045905;28;20040;-74
2023/09/10 10:42:52;;;;;;;242.27;230.57;;;29.90;94.40;;;;;;5016156;28;20500;-74
2023/09/10 10:45:18;;;;;;;219.52;208.60;;;30.00;93.10;;;;;;5014507;28;20392;-74
2023/09/10 10:47:45;;;;;;;158.30;150.10;;;29.90;93.10;;;;;;5034042;28;20039;-74
2023/09/10 10:50:11;;;;;;;261.73;249.32;;;30.00;94.00;;;;;;5033822;28;20037;-74
2023/09/10 10:53:04;;;;;;;256.70;244.23;;;30.20;93.70;;;;;;5032948;28;20036;-74
2023/09/10 10:55:30;;;;;;;264.70;251.80;;;30.30;93.00;;;;;;5032802;28;20054;-74
2023/09/10 10:57:56;;;;;;;304.80;289.63;;;30.50;93.30;;;;;;5032900;28;20041;-74
2023/09/10 11:00:22;;;;;;;277.67;264.10;;;30.60;92.80;;;;;;5035825;28;20391;-75
2023/09/10 11:02:49;;;;;;;293.30;279.35;;;30.70;92.80;;;;;;5052531;28;20033;-75
2023/09/10 11:05:16;;;;;;;220.57;209.73;;;30.70;91.90;;;;;;5034446;28;20080;-75
2023/09/10 11:07:42;;;;;;;217.43;206.63;;;30.60;92.70;;;;;;5053709;28;20033;-74
2023/09/10 11:10:29;;;;;;;243.32;231.05;;;30.50;92.30;;;;;;5052352;28;20025;-74
2023/09/10 11:13:05;;;;;;;214.52;203.63;;;30.60;92.30;;;;;;5053344;28;20029;-75
2023/09/10 11:15:32;;;;;;;248.52;236.57;;;30.70;92.60;;;;;;5050539;28;20033;-74
2023/09/10 11:18:38;;;;;;;233.25;221.23;;;30.70;92.50;;;;;;5053531;28;20032;-74
2023/09/10 11:21:11;;;;;;;273.15;259.95;;;30.90;92.50;;;;;;5052963;28;20402;-74
2023/09/10 11:23:39;;;;;;;186.75;176.80;;;30.90;92.00;;;;;;5052049;28;20032;-74
2023/09/10 11:26:14;;;;;;;182.27;173.20;;;30.80;92.20;;;;;;5052759;28;20036;-75
2023/09/10 11:28:43;;;;;;;273.45;259.75;;;30.90;92.70;;;;;;5053356;28;20467;-75
2023/09/10 11:31:46;;;;;;;227.83;216.47;;;31.00;91.80;;;;;;5052143;28;20047;-75
2023/09/10 11:34:16;;;;;;;306.77;291.80;;;31.10;92.30;;;;;;5053144;28;20040;-74
2023/09/10 11:37:02;;;;;;;281.60;267.77;;;31.20;91.40;;;;;;5052905;28;20041;-74
2023/09/10 11:39:29;;;;;;;305.15;290.25;;;31.10;91.70;;;;;;5051800;28;20352;-75
2023/09/10 11:41:57;;;;;;;317.38;301.77;;;31.30;91.30;;;;;;5052613;28;20407;-74
2023/09/10 11:44:24;;;;;;;335.73;319.23;;;31.30;91.30;;;;;;5051847;28;20459;-75
2023/09/10 11:46:53;;;;;;;324.27;308.30;;;31.40;90.70;;;;;;5050497;28;20048;-74
2023/09/10 11:49:23;;;;;;;338.02;321.17;;;31.30;90.80;;;;;;5051732;28;20051;-74
2023/09/10 11:51:55;;;;;;;260.23;247.47;;;31.40;90.50;;;;;;5050199;28;20037;-75
2023/09/10 11:54:21;;;;;;;313.88;298.45;;;31.40;91.00;;;;;;5051712;28;20529;-75
2023/09/10 11:56:51;;;;;;;297.75;282.92;;;31.50;91.00;;;;;;5051281;28;20059;-74
2023/09/10 11:59:19;;;;;;;333.27;316.80;;;31.60;90.90;;;;;;5052892;28;20472;-74
2023/09/10 12:01:46;;;;;;;322.83;306.70;;;31.50;90.60;;;;;;5051868;28;20044;-75
2023/09/10 12:04:13;;;;;;;275.35;261.73;;;31.60;90.80;;;;;;5051404;28;20028;-74
2023/09/10 12:06:39;;;;;;;319.33;303.50;;;31.60;90.70;;;;;;5050976;28;20030;-75
2023/09/10 12:09:05;;;;;;;341.05;323.77;;;31.60;90.80;;;;;;5052256;28;20463;-74
2023/09/10 12:11:32;;;;;;;359.45;341.15;;;31.50;90.20;;;;;;5052248;28;20037;-74